Details From LPPD - PONTA DELGADA
To LPAZ - SANTA MARIA
Flight Number -
Tags generated
Created
Modified
Stats Distance 53 nm / 97 km
Max Altitude 6,400 ft / 1,951 m
Waypoints 3
Social Downloads 3
Likes 0
Share VATSIM

Download

Looking for another format? Having issues loading an existing format? Contact us
Advertisement - Login to hide

Notes

Basic altitude profile: - Ascent Rate: 2500ft/min - Ascent Speed: 250kts - Cruise Altitude: 35000ft - Cruise Speed: 420kts - Descent Rate: 1500ft/min - Descent Speed: 250kts Options: - Use NATs: yes - Use PACOTS: yes - Use low airways: yes - Use high airways: yes

Route

LPPD VMG25 LPAZ

ID Type Via Altitude Latitude Longitude Leg Dist Tot Dist Heading (true) Name
O LPPD APT - 0 ft / 0 m 37.74208˚ -25.69774˚ - 0 nm - PONTA DELGADA
VMG25 FIX - 6,400 ft / 1,951 m 37.47781˚ -25.51166˚ 18 nm 18 nm 151° / 151° -
O LPAZ APT - 0 ft / 0 m 36.97273˚ -25.17053˚ 34 nm 52 nm 152° / 152° SANTA MARIA

Altitude Profile

Advertisement - Login to hide

LPPD

Details ICAO LPPD (PDL)
Name PONTA DELGADA
Region Portugal
Timezone Atlantic/Azores (UTC-1.0)
Stats Elevation 259 ft / 79 m (AMSL)
Location 37.742078° -25.697736°
Runways 1
Magnetic Variation 8.363° W

METAR

LPPD 120700Z 36005KT 310V060 9999 SCT022 BKN030 16/13 Q1030

Decode

TAF

TAF LPPD 120500Z 1206/1306 01008KT 9999 FEW018 BKN030 BECMG 1206/1209 32008KT FEW012 BKN025 BECMG 1210/1212 VRB05KT PROB30 TEMPO 1221/1306 5000 DZ BR BKN008

Decode

Departure Runways

ID Width Length Bearing (true) Bearing (mag) Surface Threshold Offset Overrun Length
12 148 ft / 45 m 8,179 ft / 2,493 m 111.77° 120.13° Asphalt 0 ft / 0 m 375 ft / 114 m
30 148 ft / 45 m 8,179 ft / 2,493 m 291.79° 300.15° Asphalt 787 ft / 240 m 0 ft / 0 m

LPAZ

Details ICAO LPAZ (SMA)
Name SANTA MARIA
Region Portugal
Timezone Atlantic/Azores (UTC-1.0)
Stats Elevation 308 ft / 94 m (AMSL)
Location 36.972732° -25.170532°
Runways 3
Magnetic Variation 8.136° W

METAR

LPAZ 120700Z 02009KT 9999 FEW018 SCT032 16/10 Q1029

Decode

TAF

TAF LPAZ 120302Z 1200/1306 CNL

Decode

Destination Runways

ID Width Length Bearing (true) Bearing (mag) Surface Threshold Offset Overrun Length
04 148 ft / 45 m 4,351 ft / 1,326 m 27.72° 35.86° Asphalt 0 ft / 0 m 210 ft / 64 m
15 148 ft / 45 m 6,061 ft / 1,847 m 135.98° 144.12° Asphalt 0 ft / 0 m 210 ft / 64 m
18 197 ft / 60 m 10,058 ft / 3,066 m 170.97° 179.11° Concrete 0 ft / 0 m 1,000 ft / 305 m
22 148 ft / 45 m 4,351 ft / 1,326 m 207.73° 215.87° Asphalt 0 ft / 0 m 125 ft / 38 m
33 148 ft / 45 m 6,061 ft / 1,847 m 315.99° 324.13° Asphalt 0 ft / 0 m 625 ft / 191 m
36 197 ft / 60 m 10,058 ft / 3,066 m 350.97° 359.11° Concrete 0 ft / 0 m 1,000 ft / 305 m

Approach Navaids

Runway Type Ident Frequency Range Bearing (true) Bearing (mag) Slope Elevation
18 Localiser MA 110.30 MHz 18 nm / 33 km 170.95° 179.08° - 279 ft / 85 m (AMSL)
18 Glidescope MA 110.30 MHz 10 nm / 19 km 170.97° 179.10° 2.75° 284 ft / 87 m (AMSL)

Popular Alternatives